createdAt,value
2019-05-21T00:01:11.126Z,80.80
2019-05-21T00:03:39.964Z,80.90
2019-05-21T00:06:08.694Z,81.10
2019-05-21T00:08:37.459Z,81.10
2019-05-21T00:11:06.308Z,81.20
2019-05-21T00:13:35.082Z,81.20
2019-05-21T00:16:04.019Z,81.20
2019-05-21T00:18:32.808Z,81.10
2019-05-21T00:21:01.650Z,81.30
2019-05-21T00:23:30.494Z,81.30
2019-05-21T00:25:59.361Z,81.60
2019-05-21T00:28:42.118Z,81.40
2019-05-21T00:31:47.371Z,81.60
2019-05-21T00:34:52.147Z,81.70
2019-05-21T00:37:57.109Z,81.60
2019-05-21T00:41:01.818Z,81.50
2019-05-21T00:43:49.344Z,81.80
2019-05-21T00:46:18.106Z,81.70
2019-05-21T00:48:47.013Z,82.00
2019-05-21T00:51:15.888Z,82.20
2019-05-21T00:53:44.649Z,82.70
2019-05-21T00:56:13.467Z,82.90
2019-05-21T00:58:42.276Z,82.70
2019-05-21T01:01:11.862Z,82.40
2019-05-21T01:03:43.268Z,82.40
2019-05-21T01:06:11.252Z,82.10
2019-05-21T01:08:40.053Z,82.00
2019-05-21T01:11:08.859Z,82.10
2019-05-21T01:13:37.629Z,82.10
2019-05-21T01:16:06.416Z,82.10
2019-05-21T01:18:35.294Z,81.90
2019-05-21T01:21:05.104Z,82.00
2019-05-21T01:23:33.935Z,81.90
2019-05-21T01:26:02.723Z,82.00
2019-05-21T01:28:31.486Z,82.10
2019-05-21T01:31:00.289Z,82.10
2019-05-21T01:33:29.082Z,82.00
2019-05-21T01:35:57.838Z,82.70
2019-05-21T01:38:26.577Z,82.20
2019-05-21T01:40:55.356Z,82.10
2019-05-21T01:43:24.131Z,82.10
2019-05-21T01:45:52.869Z,82.40
2019-05-21T01:48:21.704Z,82.50
2019-05-21T01:50:50.465Z,82.40
2019-05-21T01:53:19.260Z,82.50
2019-05-21T01:55:48.066Z,82.80
2019-05-21T01:58:16.802Z,82.10
2019-05-21T02:00:45.703Z,82.60
2019-05-21T02:03:14.567Z,82.50
2019-05-21T02:05:43.449Z,82.70
2019-05-21T02:08:12.333Z,82.40
2019-05-21T02:10:41.152Z,82.40
2019-05-21T02:13:09.942Z,82.60
2019-05-21T02:15:38.789Z,82.70
2019-05-21T02:18:07.646Z,82.70
2019-05-21T02:20:36.409Z,83.10
2019-05-21T02:23:05.288Z,83.10
2019-05-21T02:25:34.129Z,82.90
2019-05-21T02:28:02.917Z,82.80
2019-05-21T02:30:31.765Z,82.70
2019-05-21T02:33:00.605Z,82.70
2019-05-21T02:35:29.351Z,82.70
2019-05-21T02:37:58.120Z,82.80
2019-05-21T02:40:27.038Z,82.60
2019-05-21T02:42:56.214Z,82.60
2019-05-21T02:45:25.009Z,82.60
2019-05-21T02:47:53.858Z,82.70
2019-05-21T02:50:22.774Z,82.60
2019-05-21T02:52:51.570Z,82.50
2019-05-21T02:55:20.432Z,82.50
2019-05-21T02:57:49.272Z,82.50
2019-05-21T03:00:28.463Z,82.60
2019-05-21T03:02:57.319Z,82.60
2019-05-21T03:05:26.131Z,82.40
2019-05-21T03:07:54.929Z,82.50
2019-05-21T03:10:23.762Z,82.40
2019-05-21T03:12:52.616Z,82.20
2019-05-21T03:15:21.407Z,82.20
2019-05-21T03:17:50.258Z,82.30
2019-05-21T03:20:19.302Z,82.20
2019-05-21T03:22:48.199Z,82.30
2019-05-21T03:25:17.094Z,82.10
2019-05-21T03:27:45.993Z,82.40
2019-05-21T03:30:15.402Z,83.00
2019-05-21T03:32:44.225Z,82.40
2019-05-21T03:35:13.192Z,82.40
2019-05-21T03:37:41.977Z,82.60
2019-05-21T03:40:11.448Z,82.50
2019-05-21T03:42:40.211Z,82.50
2019-05-21T03:45:09.137Z,82.60
2019-05-21T03:47:38.004Z,82.70
2019-05-21T03:50:07.237Z,83.60
2019-05-21T03:52:36.010Z,83.80
2019-05-21T03:55:04.951Z,83.50
2019-05-21T03:57:33.804Z,83.40
2019-05-21T04:00:02.628Z,83.30
2019-05-21T04:02:31.482Z,83.20
2019-05-21T04:05:00.236Z,83.20
2019-05-21T04:07:29.167Z,83.20
2019-05-21T04:09:57.925Z,83.00
2019-05-21T04:12:26.746Z,83.10
2019-05-21T04:14:59.571Z,83.30
2019-05-21T04:17:45.265Z,83.30
2019-05-21T04:20:14.180Z,83.50
2019-05-21T04:22:55.283Z,83.50
2019-05-21T04:25:24.272Z,82.80
2019-05-21T04:27:53.047Z,83.40
2019-05-21T04:30:21.987Z,83.20
2019-05-21T04:32:50.858Z,83.40
2019-05-21T04:35:19.696Z,83.50
2019-05-21T04:37:48.559Z,83.50
2019-05-21T04:40:17.460Z,83.60
2019-05-21T04:42:46.303Z,84.40
2019-05-21T04:45:15.731Z,83.70
2019-05-21T04:47:44.582Z,83.60
2019-05-21T04:50:13.606Z,83.70
2019-05-21T04:52:42.403Z,83.60
2019-05-21T04:55:11.467Z,83.70
2019-05-21T04:57:40.242Z,83.70
2019-05-21T05:00:09.189Z,83.60
2019-05-21T05:02:37.980Z,83.50
2019-05-21T05:05:07.516Z,83.60
2019-05-21T05:07:36.341Z,84.20
2019-05-21T05:10:05.960Z,83.50
2019-05-21T05:12:34.807Z,83.50
2019-05-21T05:15:03.658Z,83.50
2019-05-21T06:16:24.356Z,85.60
2019-05-21T06:22:34.401Z,85.70
2019-05-21T06:25:03.902Z,85.50
2019-05-21T06:27:32.787Z,85.60
2019-05-21T06:30:01.560Z,85.80
2019-05-21T06:32:30.332Z,85.90
2019-05-21T06:34:59.159Z,85.90
2019-05-21T06:37:27.929Z,86.00
2019-05-21T06:39:56.821Z,85.90
2019-05-21T06:42:25.593Z,85.90
2019-05-21T06:44:54.521Z,85.70
2019-05-21T06:47:23.275Z,86.00
2019-05-21T06:49:52.267Z,85.90
2019-05-21T06:52:21.112Z,85.70
2019-05-21T06:54:50.042Z,85.80
2019-05-21T06:57:18.856Z,85.50
2019-05-21T06:59:47.729Z,85.90
2019-05-21T07:02:19.634Z,85.60
2019-05-21T07:04:48.468Z,85.80
2019-05-21T07:07:17.230Z,85.80
2019-05-21T07:09:46.110Z,85.90
2019-05-21T07:12:17.762Z,85.80
2019-05-21T07:14:46.631Z,85.70
2019-05-21T07:17:15.701Z,85.80
2019-05-21T07:19:44.536Z,85.80
2019-05-21T07:22:13.568Z,85.90
2019-05-21T07:24:42.684Z,85.80
2019-05-21T07:27:11.578Z,85.80
2019-05-21T07:29:41.172Z,85.70
2019-05-21T07:32:10.083Z,85.90
2019-05-21T07:34:38.936Z,85.80
2019-05-21T07:37:07.816Z,86.10
2019-05-21T07:39:36.559Z,86.10
2019-05-21T07:42:05.449Z,85.90
2019-05-21T07:44:34.382Z,86.00
2019-05-21T07:47:03.253Z,86.00
2019-05-21T07:49:32.172Z,85.90
2019-05-21T07:52:00.966Z,85.70
2019-05-21T07:54:29.917Z,85.70
2019-05-21T07:56:58.772Z,85.40
2019-05-21T07:59:27.560Z,85.40
2019-05-21T08:01:56.355Z,85.40
2019-05-21T08:04:25.146Z,85.40
2019-05-21T08:06:53.990Z,85.20
2019-05-21T08:09:23.140Z,85.30
2019-05-21T08:11:52.261Z,85.10
2019-05-21T08:14:21.164Z,85.20
2019-05-21T08:16:49.937Z,85.20
2019-05-21T08:19:18.713Z,85.20
2019-05-21T08:21:47.624Z,85.20
2019-05-21T08:24:16.573Z,85.10
2019-05-21T08:26:45.562Z,85.00
2019-05-21T08:29:14.373Z,84.90
2019-05-21T08:31:43.352Z,84.60
2019-05-21T08:34:12.306Z,84.30
2019-05-21T08:36:41.163Z,84.60
2019-05-21T08:39:09.957Z,84.80
2019-05-21T08:41:38.893Z,84.40
2019-05-21T08:44:07.768Z,84.50
2019-05-21T08:46:38.329Z,84.50
2019-05-21T08:49:07.229Z,84.30
2019-05-21T08:51:35.996Z,84.00
2019-05-21T08:54:05.029Z,84.20
2019-05-21T08:56:33.891Z,84.40
2019-05-21T08:59:02.753Z,84.20
2019-05-21T09:01:31.741Z,84.40
2019-05-21T09:04:00.609Z,84.40
2019-05-21T09:06:29.399Z,84.40
2019-05-21T09:08:58.150Z,84.30
2019-05-21T09:11:27.072Z,84.30
2019-05-21T09:13:55.857Z,84.40
2019-05-21T09:16:24.671Z,84.30
2019-05-21T09:18:53.433Z,84.10
2019-05-21T09:21:22.253Z,84.00
2019-05-21T09:23:51.146Z,83.80
2019-05-21T09:26:20.007Z,84.00
2019-05-21T09:28:48.880Z,84.20
2019-05-21T09:31:17.657Z,84.00
2019-05-21T09:33:46.562Z,83.60
2019-05-21T09:36:16.636Z,83.50
2019-05-21T09:38:45.399Z,83.40
2019-05-21T09:41:14.287Z,83.30
2019-05-21T09:43:43.109Z,82.90
2019-05-21T09:46:12.094Z,83.00
2019-05-21T09:48:41.072Z,83.00
2019-05-21T09:51:10.177Z,82.80
2019-05-21T09:53:38.924Z,82.60
2019-05-21T09:56:25.726Z,82.60
2019-05-21T09:58:56.282Z,82.50
2019-05-21T10:01:31.271Z,82.60
2019-05-21T10:04:00.152Z,82.40
2019-05-21T10:06:29.044Z,82.70
2019-05-21T10:08:57.895Z,82.80
2019-05-21T10:11:26.645Z,82.60
2019-05-21T10:13:55.562Z,82.90
2019-05-21T10:16:24.442Z,82.70
2019-05-21T10:18:53.432Z,82.70
2019-05-21T10:21:22.254Z,82.80
2019-05-21T10:23:51.150Z,82.70
2019-05-21T10:26:19.963Z,82.60
2019-05-21T10:28:48.750Z,82.80
2019-05-21T10:31:17.720Z,82.80
2019-05-21T10:33:46.618Z,82.70
2019-05-21T10:36:15.461Z,82.40
2019-05-21T10:38:44.308Z,82.50
2019-05-21T10:41:13.737Z,82.50
2019-05-21T10:43:42.730Z,82.20
2019-05-21T10:46:11.603Z,82.00
2019-05-21T10:48:40.549Z,82.10
2019-05-21T10:51:09.549Z,82.10
2019-05-21T10:53:38.666Z,82.30
2019-05-21T10:56:07.583Z,82.00
2019-05-21T10:58:36.425Z,81.90
2019-05-21T11:01:15.026Z,81.70
2019-05-21T11:04:12.595Z,81.40
2019-05-21T11:06:41.944Z,78.60
2019-05-21T11:09:16.165Z,81.40
2019-05-21T11:11:45.106Z,81.30
2019-05-21T11:14:16.202Z,81.00
2019-05-21T11:16:45.170Z,81.20
2019-05-21T11:19:14.209Z,81.20
2019-05-21T11:21:43.152Z,80.70
2019-05-21T11:24:12.012Z,80.80
2019-05-21T11:26:40.917Z,80.40
2019-05-21T11:29:09.775Z,80.40
2019-05-21T11:31:38.669Z,80.50
2019-05-21T11:34:07.454Z,80.40
2019-05-21T11:36:36.201Z,80.40
2019-05-21T11:39:08.037Z,80.20
2019-05-21T11:41:37.041Z,79.90
2019-05-21T11:44:05.879Z,80.10
2019-05-21T11:46:34.787Z,80.00
2019-05-21T11:49:03.632Z,79.80
2019-05-21T11:51:32.507Z,80.00
2019-05-21T11:54:01.405Z,79.60
2019-05-21T11:56:30.187Z,79.50
2019-05-21T11:58:59.215Z,79.30
2019-05-21T12:01:28.143Z,79.20
2019-05-21T12:03:56.997Z,78.90
2019-05-21T12:06:25.877Z,78.80
2019-05-21T12:08:57.173Z,78.60
2019-05-21T12:11:25.204Z,78.50
2019-05-21T12:13:53.954Z,78.70
2019-05-21T12:16:22.789Z,78.80
2019-05-21T12:18:51.712Z,78.70
2019-05-21T12:21:20.516Z,78.90
2019-05-21T12:23:49.295Z,79.00
2019-05-21T12:26:18.047Z,79.00
2019-05-21T12:28:46.934Z,78.70
2019-05-21T12:31:15.737Z,78.60
2019-05-21T12:33:44.592Z,78.30
2019-05-21T12:36:13.370Z,78.10
2019-05-21T12:38:42.249Z,78.10
2019-05-21T12:41:13.508Z,78.00
2019-05-21T12:43:41.858Z,78.00
2019-05-21T12:46:10.653Z,78.00
2019-05-21T12:48:39.478Z,78.00
2019-05-21T12:51:08.436Z,77.80
2019-05-21T12:53:37.305Z,78.40
2019-05-21T12:56:06.159Z,78.00
2019-05-21T12:58:35.037Z,78.20
2019-05-21T13:01:04.073Z,78.10
2019-05-21T13:03:33.003Z,78.10
2019-05-21T13:06:14.163Z,78.00
2019-05-21T13:08:43.042Z,74.90
2019-05-21T13:11:11.844Z,77.90
2019-05-21T13:13:40.648Z,78.20
2019-05-21T13:16:09.529Z,78.10
2019-05-21T13:18:38.334Z,77.90
2019-05-21T13:21:08.525Z,77.80
2019-05-21T13:23:37.840Z,77.70
2019-05-21T13:26:08.807Z,77.80
2019-05-21T13:28:37.492Z,77.70
2019-05-21T13:31:06.439Z,77.70
2019-05-21T13:33:35.319Z,77.60
2019-05-21T13:36:04.764Z,77.40
2019-05-21T13:38:33.698Z,77.60
2019-05-21T13:41:02.556Z,77.70
2019-05-21T13:43:31.417Z,77.70
2019-05-21T13:46:00.299Z,77.30
2019-05-21T13:48:29.213Z,77.80
2019-05-21T13:50:58.081Z,77.50
2019-05-21T13:53:27.025Z,77.40
2019-05-21T13:55:55.821Z,77.30
2019-05-21T13:58:24.826Z,77.30
2019-05-21T14:00:54.278Z,77.20
2019-05-21T14:03:23.340Z,77.50
2019-05-21T14:05:52.280Z,77.60
2019-05-21T14:08:21.411Z,77.70
2019-05-21T14:10:50.181Z,77.60
2019-05-21T14:13:19.111Z,77.70
2019-05-21T14:15:47.902Z,76.90
2019-05-21T14:18:16.789Z,77.40
2019-05-21T14:20:45.630Z,77.30
2019-05-21T14:23:14.648Z,77.50
2019-05-21T14:25:43.415Z,77.00
2019-05-21T14:28:12.545Z,77.50
2019-05-21T14:30:41.465Z,76.80
2019-05-21T14:33:10.555Z,77.10
2019-05-21T14:35:40.066Z,76.80
2019-05-21T14:38:08.990Z,76.70
2019-05-21T14:40:37.827Z,76.50
2019-05-21T14:43:06.857Z,76.70
2019-05-21T14:45:35.730Z,76.70
2019-05-21T14:48:04.792Z,76.90
2019-05-21T14:50:33.550Z,76.60
2019-05-21T14:53:02.438Z,76.80
2019-05-21T14:55:31.208Z,76.50
2019-05-21T14:58:00.134Z,76.50
2019-05-21T15:00:32.681Z,76.30
2019-05-21T15:03:01.458Z,76.50
2019-05-21T15:05:30.342Z,76.30
2019-05-21T15:07:59.147Z,76.40
2019-05-21T15:10:27.946Z,76.70
2019-05-21T15:12:56.853Z,76.60
2019-05-21T15:15:25.650Z,76.30
2019-05-21T15:17:54.506Z,76.60
2019-05-21T15:20:33.395Z,77.60
2019-05-21T15:23:02.396Z,77.00
2019-05-21T15:25:31.231Z,77.00
2019-05-21T15:28:00.117Z,77.10
2019-05-21T15:30:28.881Z,77.00
2019-05-21T15:32:57.719Z,76.80
2019-05-21T15:35:26.533Z,76.80
2019-05-21T15:37:55.468Z,76.80
2019-05-21T15:40:24.449Z,77.40
2019-05-21T15:42:53.890Z,76.90
2019-05-21T15:45:23.188Z,76.80
2019-05-21T15:47:51.953Z,76.80
2019-05-21T15:50:20.893Z,76.90
2019-05-21T15:52:49.736Z,77.10
2019-05-21T15:55:18.532Z,77.10
2019-05-21T15:57:47.598Z,76.80
2019-05-21T16:00:16.758Z,76.90
2019-05-21T16:02:45.750Z,76.90
2019-05-21T16:05:15.286Z,77.10
2019-05-21T16:07:44.261Z,77.30
2019-05-21T16:10:13.636Z,77.30
2019-05-21T16:12:42.495Z,77.40
2019-05-21T16:15:11.402Z,77.50
2019-05-21T16:17:40.294Z,77.40
2019-05-21T16:20:09.693Z,77.30
2019-05-21T16:22:38.498Z,77.50
2019-05-21T16:25:07.957Z,77.30
2019-05-21T16:27:36.723Z,77.30
2019-05-21T16:30:05.996Z,77.30
2019-05-21T16:32:35.013Z,77.30
2019-05-21T16:35:04.239Z,78.00
2019-05-21T16:37:33.111Z,77.50
2019-05-21T16:40:01.999Z,77.40
2019-05-21T16:42:30.935Z,77.60
2019-05-21T16:44:59.723Z,77.70
2019-05-21T16:47:44.636Z,77.70
2019-05-21T16:50:04.093Z,77.40
2019-05-21T16:52:33.150Z,77.80
2019-05-21T16:55:05.673Z,77.80
2019-05-21T16:57:34.597Z,77.80
2019-05-21T17:00:03.788Z,78.00
2019-05-21T17:02:32.543Z,78.00
2019-05-21T17:05:01.561Z,77.90
2019-05-21T17:07:30.340Z,78.00
2019-05-21T17:09:59.174Z,78.10
2019-05-21T17:12:28.148Z,78.10
2019-05-21T17:14:56.941Z,78.20
2019-05-21T17:17:25.690Z,78.30
2019-05-21T17:19:54.532Z,78.40
2019-05-21T17:22:23.300Z,78.70
2019-05-21T17:24:52.112Z,78.50
2019-05-21T17:27:21.153Z,78.50
2019-05-21T17:29:49.984Z,78.50
2019-05-21T17:32:18.957Z,78.70
2019-05-21T17:34:47.726Z,78.60
2019-05-21T17:37:16.545Z,78.70
2019-05-21T17:39:45.381Z,78.30
2019-05-21T17:42:15.842Z,78.80
2019-05-21T17:44:44.950Z,79.10
2019-05-21T17:47:14.193Z,79.00
2019-05-21T17:49:43.033Z,79.00
2019-05-21T17:52:11.976Z,79.10
2019-05-21T17:54:55.513Z,79.20
2019-05-21T17:57:11.256Z,79.40
2019-05-21T17:59:40.092Z,79.40
2019-05-21T18:02:11.476Z,79.60
2019-05-21T18:04:40.624Z,79.60
2019-05-21T18:07:10.312Z,79.60
2019-05-21T18:09:39.840Z,79.50
2019-05-21T18:12:09.933Z,79.70
2019-05-21T18:14:39.188Z,79.80
2019-05-21T18:17:12.154Z,79.90
2019-05-21T18:19:41.738Z,78.20
2019-05-21T18:22:11.672Z,80.40
2019-05-21T18:24:40.684Z,80.90
2019-05-21T18:27:09.499Z,80.80
2019-05-21T18:29:38.392Z,80.90
2019-05-21T18:32:07.382Z,80.70
2019-05-21T18:34:36.305Z,80.60
2019-05-21T18:37:05.555Z,80.40
2019-05-21T18:39:35.935Z,79.90
2019-05-21T18:42:19.658Z,80.30
2019-05-21T18:44:35.674Z,80.30
2019-05-21T18:47:04.505Z,80.30
2019-05-21T18:49:36.440Z,80.40
2019-05-21T18:52:05.470Z,80.40
2019-05-21T18:54:34.327Z,80.50
2019-05-21T18:57:03.186Z,80.50
2019-05-21T18:59:31.949Z,80.70
2019-05-21T19:02:00.922Z,80.70
2019-05-21T19:04:29.684Z,80.80
2019-05-21T19:06:58.743Z,81.00
2019-05-21T19:09:27.780Z,80.90
2019-05-21T19:11:56.751Z,81.10
2019-05-21T19:14:25.640Z,81.10
2019-05-21T19:16:54.420Z,81.20
2019-05-21T19:19:23.252Z,81.30
2019-05-21T19:21:52.120Z,81.20
2019-05-21T19:24:20.977Z,81.30
2019-05-21T19:26:49.768Z,81.50
2019-05-21T19:29:18.635Z,81.50
2019-05-21T19:31:49.410Z,81.70
2019-05-21T19:34:18.333Z,81.80
2019-05-21T19:36:47.175Z,82.10
2019-05-21T19:39:15.948Z,83.00
2019-05-21T19:41:45.096Z,82.40
2019-05-21T19:44:14.077Z,82.60
2019-05-21T19:46:42.831Z,82.80
2019-05-21T19:49:11.730Z,83.00
2019-05-21T19:51:40.708Z,83.10
2019-05-21T19:54:09.662Z,83.20
2019-05-21T19:56:38.576Z,83.20
2019-05-21T19:59:07.443Z,83.30
2019-05-21T20:01:36.749Z,83.30
2019-05-21T20:04:06.783Z,83.30
2019-05-21T20:06:37.164Z,83.30
2019-05-21T20:09:09.088Z,84.20
2019-05-21T20:11:38.280Z,84.40
2019-05-21T20:14:07.322Z,85.40
2019-05-21T20:16:37.643Z,85.10
2019-05-21T20:19:07.415Z,84.80
2019-05-21T20:21:36.324Z,84.10
2019-05-21T20:24:07.032Z,84.30
2019-05-21T20:26:36.141Z,83.90
2019-05-21T20:29:06.073Z,83.60
2019-05-21T20:31:35.385Z,83.80
2019-05-21T20:34:06.253Z,83.50
2019-05-21T20:36:35.255Z,83.40
2019-05-21T20:39:06.374Z,83.40
2019-05-21T20:41:35.836Z,83.60
2019-05-21T20:44:07.187Z,83.50
2019-05-21T20:46:36.496Z,83.50
2019-05-21T20:49:05.868Z,83.60
2019-05-21T20:51:34.820Z,83.80
2019-05-21T20:54:05.890Z,84.60
2019-05-21T20:56:35.352Z,84.70
2019-05-21T20:59:05.281Z,84.70
2019-05-21T21:01:34.164Z,84.50
2019-05-21T21:04:03.514Z,84.40
2019-05-21T21:06:35.806Z,84.30
2019-05-21T21:09:07.171Z,84.30
2019-05-21T21:11:36.134Z,84.10
2019-05-21T21:14:17.500Z,84.10
2019-05-21T21:16:37.671Z,84.00
2019-05-21T21:19:06.506Z,83.70
2019-05-21T21:21:35.784Z,83.80
2019-05-21T21:24:06.392Z,83.70
2019-05-21T21:26:35.590Z,83.80
2019-05-21T21:29:04.644Z,83.60
2019-05-21T21:31:33.834Z,83.50
2019-05-21T21:34:03.769Z,83.40
2019-05-21T21:36:32.785Z,83.80
2019-05-21T21:39:01.704Z,83.80
2019-05-21T21:41:30.451Z,83.70
2019-05-21T21:43:59.403Z,83.70
2019-05-21T21:46:28.150Z,83.60
2019-05-21T21:48:57.655Z,83.50
2019-05-21T21:51:26.385Z,83.50
2019-05-21T21:53:55.305Z,83.50
2019-05-21T21:56:24.149Z,83.50
2019-05-21T21:58:52.902Z,83.50
2019-05-21T22:01:46.807Z,83.50
2019-05-21T22:04:17.977Z,83.30
2019-05-21T22:06:48.322Z,82.80
2019-05-21T22:09:31.065Z,82.80
2019-05-21T22:12:00.043Z,82.60
2019-05-21T22:14:29.635Z,82.70
2019-05-21T22:16:58.768Z,82.90
2019-05-21T22:19:28.181Z,83.00
2019-05-21T22:21:57.219Z,82.60
2019-05-21T22:24:26.105Z,82.30
2019-05-21T22:26:55.059Z,81.70
2019-05-21T22:29:24.281Z,81.60
2019-05-21T22:31:53.209Z,81.30
2019-05-21T22:34:22.081Z,81.20
2019-05-21T22:36:51.011Z,81.20
2019-05-21T22:39:22.883Z,81.40
2019-05-21T22:41:51.792Z,81.20
2019-05-21T22:44:20.628Z,81.20
2019-05-21T22:46:50.187Z,81.20
2019-05-21T22:49:19.176Z,80.70
2019-05-21T22:51:48.630Z,80.90
2019-05-21T22:54:17.552Z,80.90
2019-05-21T22:56:46.307Z,80.80
2019-05-21T22:59:15.481Z,81.00
2019-05-21T23:01:45.174Z,80.70
2019-05-21T23:04:14.199Z,80.80
2019-05-21T23:06:43.598Z,80.80
2019-05-21T23:09:12.514Z,80.50
2019-05-21T23:11:41.351Z,80.50
2019-05-21T23:14:10.366Z,80.30
2019-05-21T23:16:39.284Z,80.30
2019-05-21T23:19:08.583Z,80.30
2019-05-21T23:21:37.325Z,80.00
2019-05-21T23:24:08.578Z,80.10
2019-05-21T23:26:37.354Z,79.80
2019-05-21T23:29:06.701Z,79.50
2019-05-21T23:31:35.956Z,79.70
2019-05-21T23:34:05.179Z,79.70
2019-05-21T23:36:34.046Z,79.70
2019-05-21T23:39:04.630Z,79.70
2019-05-21T23:41:34.348Z,79.50
2019-05-21T23:44:03.809Z,78.80
2019-05-21T23:46:32.722Z,78.70
2019-05-21T23:49:01.486Z,78.50
2019-05-21T23:51:30.240Z,78.50
2019-05-21T23:53:59.313Z,78.50
2019-05-21T23:56:28.240Z,78.40
2019-05-21T23:58:57.245Z,78.50
